createdAt,value
2023-03-25T00:00:58.069Z,99178.52
2023-03-25T00:06:09.197Z,99176.87
2023-03-25T00:11:12.800Z,99168.20
2023-03-25T00:16:16.915Z,99172.89
2023-03-25T00:21:23.493Z,99176.81
2023-03-25T00:26:53.780Z,99174.75
2023-03-25T00:32:08.715Z,99168.11
2023-03-25T00:37:12.309Z,99176.86
2023-03-25T00:42:17.587Z,99173.33
2023-03-25T00:47:23.914Z,99173.85
2023-03-25T00:52:27.449Z,99173.73
2023-03-25T00:58:10.515Z,99172.19
2023-03-25T01:03:17.171Z,99173.37
2023-03-25T01:08:25.863Z,99166.13
2023-03-25T01:13:29.574Z,99176.98
2023-03-25T01:18:38.128Z,99169.91
2023-03-25T01:24:02.188Z,99169.91
2023-03-25T01:29:05.684Z,99177.61
2023-03-25T01:34:09.903Z,99172.96
2023-03-25T01:39:18.878Z,99165.22
2023-03-25T01:44:22.756Z,99165.80
2023-03-25T01:49:33.390Z,99170.98
2023-03-25T01:54:39.025Z,99164.85
2023-03-25T01:59:42.467Z,99165.80
2023-03-25T02:04:59.461Z,99169.00
2023-03-25T02:10:08.028Z,99185.48
2023-03-25T02:15:14.922Z,99175.58
2023-03-25T02:20:47.052Z,99170.02
2023-03-25T02:26:16.558Z,99164.72
2023-03-25T02:31:54.139Z,99160.72
2023-03-25T02:37:20.435Z,99151.61
2023-03-25T02:42:50.101Z,99159.34
2023-03-25T02:48:01.273Z,99165.02
2023-03-25T02:53:23.960Z,99169.84
2023-03-25T02:58:30.116Z,99168.56
2023-03-25T03:03:33.678Z,99171.52
2023-03-25T03:09:12.971Z,99171.16
2023-03-25T03:15:08.457Z,99171.13
2023-03-25T03:20:22.748Z,99177.34
2023-03-25T03:25:54.788Z,99172.91
2023-03-25T03:31:07.872Z,99175.55
2023-03-25T03:36:25.534Z,99177.94
2023-03-25T03:41:55.012Z,99174.45
2023-03-25T03:47:04.974Z,99168.00
2023-03-25T03:52:18.180Z,99170.68
2023-03-25T03:57:32.760Z,99180.39
2023-03-25T04:03:02.108Z,99184.23
2023-03-25T04:08:15.086Z,99187.80
2023-03-25T04:13:22.175Z,99188.90
2023-03-25T04:18:28.701Z,99192.02
2023-03-25T04:23:34.903Z,99199.48
2023-03-25T04:29:00.199Z,99200.80
2023-03-25T04:34:10.838Z,99203.39
2023-03-25T04:39:44.851Z,99207.34
2023-03-25T04:45:14.452Z,99204.87
2023-03-25T04:50:29.202Z,99203.30
2023-03-25T04:56:16.334Z,99196.29
2023-03-25T05:01:31.141Z,99203.69
2023-03-25T05:06:41.913Z,99211.30
2023-03-25T05:11:46.525Z,99211.13
2023-03-25T05:17:00.609Z,99209.07
2023-03-25T05:22:04.839Z,99208.90
2023-03-25T05:27:08.078Z,99208.74
2023-03-25T05:32:19.095Z,99212.92
2023-03-25T05:37:22.729Z,99215.45
2023-03-25T05:42:26.141Z,99228.75
2023-03-25T05:47:32.859Z,99228.03
2023-03-25T05:52:37.213Z,99224.92
2023-03-25T05:57:40.915Z,99231.16
2023-03-25T06:02:47.364Z,99232.90
2023-03-25T06:07:51.681Z,99235.73
2023-03-25T06:12:55.255Z,99232.67
2023-03-25T06:17:58.887Z,99233.13
2023-03-25T06:23:06.826Z,99227.53
2023-03-25T06:28:10.453Z,99226.34
2023-03-25T06:33:43.289Z,99232.63
2023-03-25T06:38:50.417Z,99241.15
2023-03-25T06:43:56.240Z,99235.71
2023-03-25T06:49:49.788Z,99233.00
2023-03-25T06:54:53.387Z,99235.52
2023-03-25T07:00:00.182Z,99232.66
2023-03-25T07:05:05.589Z,99222.40
2023-03-25T07:10:14.787Z,99221.11
2023-03-25T07:15:18.353Z,99221.40
2023-03-25T07:20:22.043Z,99223.05
2023-03-25T07:25:25.628Z,99227.14
2023-03-25T07:30:28.978Z,99215.55
2023-03-25T07:35:35.170Z,99216.81
2023-03-25T07:40:38.916Z,99223.60
2023-03-25T07:45:55.903Z,99225.61
2023-03-25T07:51:00.175Z,99228.30
2023-03-25T07:56:03.959Z,99231.70
2023-03-25T08:01:07.524Z,99233.91
2023-03-25T08:06:11.042Z,99228.52
2023-03-25T08:11:14.557Z,99224.31
2023-03-25T08:16:18.176Z,99219.91
2023-03-25T08:21:25.761Z,99224.16
2023-03-25T08:26:29.815Z,99227.58
2023-03-25T08:31:37.186Z,99222.81
2023-03-25T08:36:43.411Z,99219.10
2023-03-25T08:41:46.707Z,99217.06
2023-03-25T08:46:50.307Z,99216.39
2023-03-25T08:51:53.778Z,99206.35
2023-03-25T08:56:57.183Z,99211.58
2023-03-25T09:02:01.693Z,99209.95
2023-03-25T09:07:12.575Z,99210.57
2023-03-25T09:12:16.245Z,99206.11
2023-03-25T09:17:20.280Z,99208.38
2023-03-25T09:22:23.674Z,99205.61
2023-03-25T09:27:27.116Z,99207.08
2023-03-25T09:32:31.173Z,99205.42
2023-03-25T09:37:34.569Z,99211.60
2023-03-25T09:42:49.117Z,99207.97
2023-03-25T09:47:56.597Z,99202.65
2023-03-25T09:53:08.673Z,99200.56
2023-03-25T09:58:28.287Z,99204.55
2023-03-25T10:03:58.653Z,99203.13
2023-03-25T10:09:34.694Z,99200.39
2023-03-25T10:15:16.688Z,99197.66
2023-03-25T10:20:34.666Z,99196.50
2023-03-25T10:25:43.057Z,99187.73
2023-03-25T10:30:52.990Z,99181.11
2023-03-25T10:36:01.033Z,99176.23
2023-03-25T10:41:22.861Z,99177.62
2023-03-25T10:46:39.801Z,99170.59
2023-03-25T10:51:44.203Z,99168.64
2023-03-25T10:56:51.571Z,99169.14
2023-03-25T11:01:56.743Z,99165.98
2023-03-25T11:07:00.642Z,99157.49
2023-03-25T11:12:06.819Z,99147.06
2023-03-25T11:17:18.630Z,99142.02
2023-03-25T11:22:30.695Z,99130.93
2023-03-25T11:27:45.804Z,99120.84
2023-03-25T11:33:20.925Z,99118.95
2023-03-25T11:38:29.246Z,99107.61
2023-03-25T11:43:40.119Z,99104.70
2023-03-25T11:48:46.831Z,99111.51
2023-03-25T11:54:00.082Z,99106.33
2023-03-25T11:59:07.548Z,99106.15
2023-03-25T12:04:16.441Z,99103.24
2023-03-25T12:09:19.620Z,99096.37
2023-03-25T12:14:56.756Z,99088.36
2023-03-25T12:20:52.783Z,99084.15
2023-03-25T12:26:17.275Z,99071.95
2023-03-25T12:31:44.390Z,99070.98
2023-03-25T12:37:15.314Z,99068.79
2023-03-25T12:42:46.874Z,99064.27
2023-03-25T12:47:57.196Z,99052.98
2023-03-25T12:53:40.953Z,99056.25
2023-03-25T12:59:23.787Z,99052.72
2023-03-25T13:04:58.178Z,99056.13
2023-03-25T13:10:23.430Z,99063.58
2023-03-25T13:15:35.460Z,99063.98
2023-03-25T13:20:49.771Z,99062.62
2023-03-25T13:26:12.136Z,99058.86
2023-03-25T13:31:25.982Z,99053.23
2023-03-25T13:36:34.612Z,99051.52
2023-03-25T13:42:03.189Z,99032.13
2023-03-25T13:47:37.291Z,99024.22
2023-03-25T13:52:46.497Z,99019.98
2023-03-25T13:58:06.981Z,99019.82
2023-03-25T14:03:37.381Z,99021.27
2023-03-25T14:08:52.899Z,99023.08
2023-03-25T14:14:06.423Z,99021.19
2023-03-25T14:19:18.088Z,99024.04
2023-03-25T14:24:36.642Z,99026.37
2023-03-25T14:30:01.235Z,99022.61
2023-03-25T14:35:38.413Z,99027.86
2023-03-25T14:46:11.329Z,99035.29
2023-03-25T14:51:27.554Z,99064.59
2023-03-25T14:56:44.299Z,99089.09
2023-03-25T15:01:48.864Z,99099.70
2023-03-25T15:06:53.444Z,99101.93
2023-03-25T15:12:02.551Z,99099.46
2023-03-25T15:17:11.090Z,99111.74
2023-03-25T15:22:23.330Z,99112.52
2023-03-25T15:27:56.003Z,99117.58
2023-03-25T15:33:40.631Z,99115.14
2023-03-25T15:38:54.300Z,99119.33
2023-03-25T15:44:27.749Z,99103.14
2023-03-25T15:50:06.574Z,99059.16
2023-03-25T15:55:17.762Z,99060.97
2023-03-25T16:00:27.894Z,99056.33
2023-03-25T16:05:34.506Z,99059.71
2023-03-25T16:10:39.788Z,99062.77
2023-03-25T16:15:45.148Z,99065.59
2023-03-25T16:20:59.564Z,99072.15
2023-03-25T16:26:04.980Z,99085.43
2023-03-25T16:31:42.988Z,99089.73
2023-03-25T16:36:55.686Z,99086.43
2023-03-25T16:42:37.370Z,99080.30
2023-03-25T16:48:09.864Z,99077.96
2023-03-25T16:53:16.212Z,99074.24
2023-03-25T16:58:44.212Z,99084.29
2023-03-25T17:04:01.170Z,99092.83
2023-03-25T17:09:46.664Z,99098.84
2023-03-25T17:15:07.081Z,99102.73
2023-03-25T17:20:19.673Z,99114.27
2023-03-25T17:25:35.023Z,99117.27
2023-03-25T17:30:45.293Z,99119.23
2023-03-25T17:35:55.173Z,99116.80
2023-03-25T17:41:17.937Z,99116.21
2023-03-25T17:46:52.820Z,99110.35
2023-03-25T17:51:58.339Z,99117.16
2023-03-25T17:57:09.377Z,99109.73
2023-03-25T18:02:17.437Z,99101.09
2023-03-25T18:07:21.551Z,99103.12
2023-03-25T18:12:28.889Z,99116.52
2023-03-25T18:17:55.594Z,99114.89
2023-03-25T18:23:02.161Z,99118.27
2023-03-25T18:28:11.485Z,99121.97
2023-03-25T18:33:18.531Z,99123.14
2023-03-25T18:38:24.649Z,99124.91
2023-03-25T18:43:28.408Z,99132.56
2023-03-25T18:48:37.756Z,99153.67
2023-03-25T18:54:01.687Z,99151.88
2023-03-25T18:59:05.440Z,99150.48
2023-03-25T19:04:32.094Z,99146.70
2023-03-25T19:09:41.777Z,99144.23
2023-03-25T19:14:45.522Z,99148.61
2023-03-25T19:19:49.730Z,99143.16
2023-03-25T19:25:16.028Z,99133.84
2023-03-25T19:30:21.850Z,99133.79
2023-03-25T19:35:43.003Z,99130.61
2023-03-25T19:40:52.171Z,99129.44
2023-03-25T19:46:19.251Z,99131.89
2023-03-25T19:51:22.864Z,99128.95
2023-03-25T19:56:26.591Z,99124.71
2023-03-25T20:02:10.336Z,99121.94
2023-03-25T20:07:26.480Z,99119.09
2023-03-25T20:12:33.328Z,99116.61
2023-03-25T20:17:37.713Z,99114.54
2023-03-25T20:22:44.385Z,99115.48
2023-03-25T20:28:08.456Z,99113.92
2023-03-25T20:33:12.335Z,99116.00
2023-03-25T20:38:50.491Z,99123.33
2023-03-25T20:44:02.270Z,99121.03
2023-03-25T20:49:14.233Z,99120.84
2023-03-25T20:54:19.834Z,99115.14
2023-03-25T20:59:48.758Z,99118.21
2023-03-25T21:05:01.988Z,99118.96
2023-03-25T21:10:31.315Z,99117.23
2023-03-25T21:15:58.880Z,99116.05
2023-03-25T21:21:24.324Z,99120.09
2023-03-25T21:26:39.210Z,99115.61
2023-03-25T21:32:25.145Z,99110.02
2023-03-25T21:37:59.333Z,99109.73
2023-03-25T21:43:04.968Z,99109.16
2023-03-25T21:48:32.511Z,99107.82
2023-03-25T21:53:45.156Z,99103.53
2023-03-25T21:59:09.205Z,99106.16
2023-03-25T22:04:15.942Z,99104.42
2023-03-25T22:09:19.417Z,99104.91
2023-03-25T22:14:23.569Z,99103.48
2023-03-25T22:19:27.340Z,99102.13
2023-03-25T22:25:04.823Z,99100.58
2023-03-25T22:30:15.812Z,99101.99
2023-03-25T22:35:21.803Z,99102.59
2023-03-25T22:40:28.874Z,99108.26
2023-03-25T22:45:34.718Z,99107.86
2023-03-25T22:50:44.616Z,99110.61
2023-03-25T22:56:33.976Z,99109.52
2023-03-25T23:01:48.006Z,99107.09
2023-03-25T23:07:04.768Z,99104.31
2023-03-25T23:12:34.262Z,99107.58
2023-03-25T23:18:11.514Z,99103.14
2023-03-25T23:23:22.480Z,99104.52
2023-03-25T23:29:03.222Z,99105.89
2023-03-25T23:34:12.616Z,99106.11
2023-03-25T23:39:22.649Z,99101.69
2023-03-25T23:45:06.811Z,99099.77
2023-03-25T23:50:18.619Z,99108.50
2023-03-25T23:55:37.662Z,99110.69
